Time;durP1;ratioP1;P1;durP2;ratioP2;P2;SDS_P1;SDS_P2;PMS_P1;PMS_P2;Temp;Humidity;BMP_temperature;BMP_pressure;BME280_temperature;BME280_humidity;BME280_pressure;Samples;Min_cycle;Max_cycle;Signal;HPM_P1;HPM_P2
2022/07/27 00:00:36;;;;;;;4.77;1.07;;;;;14.10;101526.00;;;;10466825;28;20217;-77
2022/07/27 00:05:38;;;;;;;4.33;1.30;;;;;14.00;101525.00;;;;10472833;28;20198;-77
2022/07/27 00:10:41;;;;;;;5.13;1.60;;;;;13.90;101520.00;;;;10448645;28;20186;-77
2022/07/27 00:15:43;;;;;;;5.63;1.47;;;;;13.80;101512.00;;;;10468301;28;20197;-77
2022/07/27 00:20:45;;;;;;;2.20;1.23;;;;;13.70;101522.00;;;;10473522;28;20243;-77
2022/07/27 00:25:47;;;;;;;3.70;1.70;;;;;13.70;101517.00;;;;10484113;28;20200;-77
2022/07/27 00:30:49;;;;;;;4.07;1.53;;;;;13.60;101515.00;;;;10444464;28;20672;-77
2022/07/27 00:35:51;;;;;;;5.17;1.40;;;;;13.60;101520.00;;;;10484714;28;20197;-77
2022/07/27 00:40:53;;;;;;;3.20;1.23;;;;;13.50;101517.00;;;;10464307;28;20209;-78
2022/07/27 00:45:55;;;;;;;6.67;1.53;;;;;13.40;101514.00;;;;10486261;28;20660;-77
2022/07/27 00:50:57;;;;;;;3.63;1.60;;;;;13.30;101512.00;;;;10488373;28;20181;-77
2022/07/27 00:55:59;;;;;;;4.30;1.40;;;;;13.20;101521.00;;;;10464040;28;20675;-77
2022/07/27 01:01:01;;;;;;;4.20;1.57;;;;;13.20;101524.00;;;;10463588;28;20222;-78
2022/07/27 01:06:03;;;;;;;5.37;1.33;;;;;13.00;101519.00;;;;10486662;28;20211;-77
2022/07/27 01:11:08;;;;;;;3.73;1.60;;;;;12.90;101518.00;;;;10486819;28;20188;-78
2022/07/27 01:16:10;;;;;;;3.67;1.40;;;;;12.90;101520.00;;;;10499971;28;20216;-78
2022/07/27 01:21:12;;;;;;;4.47;1.80;;;;;12.70;101509.00;;;;10453927;28;20961;-77
2022/07/27 01:26:14;;;;;;;4.37;1.73;;;;;12.60;101513.00;;;;10503614;28;20678;-77
2022/07/27 01:31:16;;;;;;;5.20;1.83;;;;;12.50;101515.00;;;;10448298;28;20222;-77
2022/07/27 01:36:19;;;;;;;2.33;1.73;;;;;12.40;101514.00;;;;10462910;28;20208;-77
2022/07/27 01:41:21;;;;;;;3.63;1.87;;;;;12.40;101514.00;;;;10486876;28;20598;-77
2022/07/27 01:46:23;;;;;;;7.77;2.13;;;;;12.40;101512.00;;;;10520612;28;20215;-77
2022/07/27 01:51:25;;;;;;;3.47;1.60;;;;;12.30;101506.00;;;;10476081;28;20592;-77
2022/07/27 01:56:27;;;;;;;4.10;1.60;;;;;12.20;101511.00;;;;10439969;28;20495;-77
2022/07/27 02:01:29;;;;;;;7.67;1.87;;;;;12.10;101499.00;;;;10497949;28;20220;-77
2022/07/27 02:06:31;;;;;;;3.77;1.73;;;;;12.00;101497.00;;;;10503435;28;20203;-77
2022/07/27 02:16:54;;;;;;;8.33;1.80;;;;;11.80;101498.00;;;;10495804;28;20197;-77
2022/07/27 02:21:56;;;;;;;8.57;2.00;;;;;11.70;101504.00;;;;10461743;28;20213;-77
2022/07/27 02:26:58;;;;;;;5.40;1.70;;;;;11.60;101500.00;;;;10478569;28;20204;-77
2022/07/27 02:32:00;;;;;;;3.17;1.90;;;;;11.50;101499.00;;;;10453920;28;20198;-77
2022/07/27 02:37:02;;;;;;;4.77;2.00;;;;;11.30;101494.00;;;;10468639;28;20186;-76
2022/07/27 02:42:07;;;;;;;2.90;1.93;;;;;11.30;101491.00;;;;10474896;28;20193;-77
2022/07/27 02:47:09;;;;;;;4.77;1.80;;;;;11.30;101500.00;;;;10469873;28;20277;-78
2022/07/27 02:52:11;;;;;;;5.43;1.90;;;;;11.20;101498.00;;;;10460812;28;20554;-77
2022/07/27 02:57:13;;;;;;;5.07;2.53;;;;;11.20;101497.00;;;;10436310;28;20275;-77
2022/07/27 03:02:15;;;;;;;2.30;1.83;;;;;11.10;101510.00;;;;10481442;28;20305;-77
2022/07/27 03:07:17;;;;;;;10.07;2.50;;;;;11.10;101515.00;;;;10526722;28;20234;-76
2022/07/27 03:12:19;;;;;;;5.90;2.03;;;;;11.00;101506.00;;;;10476098;28;20215;-77
2022/07/27 03:17:21;;;;;;;4.47;2.40;;;;;10.90;101504.00;;;;10485592;28;20211;-77
2022/07/27 03:22:23;;;;;;;4.43;2.30;;;;;10.80;101514.00;;;;10485468;28;20216;-77
2022/07/27 03:27:25;;;;;;;6.17;2.20;;;;;10.80;101505.00;;;;10493957;28;20739;-77
2022/07/27 03:32:27;;;;;;;5.60;2.30;;;;;10.70;101512.00;;;;10489039;28;20216;-77
2022/07/27 03:37:29;;;;;;;4.07;2.30;;;;;10.60;101512.00;;;;10467106;28;20201;-76
2022/07/27 03:42:31;;;;;;;8.70;2.63;;;;;10.60;101518.00;;;;10451167;28;20198;-76
2022/07/27 03:47:33;;;;;;;7.33;2.60;;;;;10.60;101520.00;;;;10452799;28;20278;-77
2022/07/27 03:52:35;;;;;;;6.13;2.40;;;;;10.60;101516.00;;;;10491023;28;20185;-77
2022/07/27 03:57:38;;;;;;;5.93;2.30;;;;;10.60;101507.00;;;;10451625;28;20292;-77
2022/07/27 04:02:41;;;;;;;6.63;2.70;;;;;10.60;101510.00;;;;10482014;28;20223;-76
2022/07/27 04:07:42;;;;;;;3.93;2.37;;;;;10.60;101511.00;;;;10477554;28;20194;-76
2022/07/27 04:12:44;;;;;;;4.73;2.03;;;;;10.60;101514.00;;;;10467249;28;20591;-76
2022/07/27 04:17:49;;;;;;;3.03;1.80;;;;;10.70;101520.00;;;;10468545;28;20209;-77
2022/07/27 04:22:57;;;;;;;4.87;2.00;;;;;10.70;101523.00;;;;10465795;28;20259;-77
2022/07/27 04:27:59;;;;;;;7.07;2.20;;;;;10.80;101536.00;;;;10464824;28;20243;-77
2022/07/27 04:33:01;;;;;;;4.67;2.17;;;;;10.80;101528.00;;;;10460090;28;20232;-76
2022/07/27 04:38:05;;;;;;;5.43;2.40;;;;;10.90;101530.00;;;;10447963;28;20217;-76
2022/07/27 04:43:07;;;;;;;3.43;2.27;;;;;11.00;101531.00;;;;10468325;28;20199;-77
2022/07/27 04:48:09;;;;;;;4.43;2.53;;;;;11.20;101542.00;;;;10502889;28;20193;-77
2022/07/27 04:53:12;;;;;;;4.77;2.53;;;;;11.30;101540.00;;;;10481290;28;20249;-77
2022/07/27 04:58:15;;;;;;;3.53;2.90;;;;;11.50;101546.00;;;;10447725;28;20580;-77
2022/07/27 05:03:16;;;;;;;3.83;2.40;;;;;11.80;101545.00;;;;10479524;28;20214;-76
2022/07/27 05:08:19;;;;;;;6.30;2.93;;;;;12.30;101550.00;;;;10447210;28;20746;-77
2022/07/27 05:13:21;;;;;;;4.30;2.80;;;;;13.00;101551.00;;;;10453402;28;20605;-77
2022/07/27 05:18:24;;;;;;;5.33;2.20;;;;;13.10;101551.00;;;;10447771;28;20210;-77
2022/07/27 05:23:26;;;;;;;5.70;2.90;;;;;13.40;101554.00;;;;10463305;28;20200;-77
2022/07/27 05:28:29;;;;;;;7.73;2.70;;;;;13.80;101554.00;;;;10463581;28;20216;-77
2022/07/27 05:33:31;;;;;;;3.00;2.47;;;;;14.20;101556.00;;;;10467503;28;20648;-77
2022/07/27 05:38:38;;;;;;;7.20;4.17;;;;;14.60;101561.00;;;;10446526;28;20210;-77
2022/07/27 05:43:40;;;;;;;5.17;2.77;;;;;14.90;101566.00;;;;10481677;28;20212;-77
2022/07/27 05:48:42;;;;;;;4.87;2.40;;;;;15.30;101568.00;;;;10483260;28;20196;-77
2022/07/27 05:53:44;;;;;;;4.43;1.83;;;;;15.90;101567.00;;;;10482176;28;20652;-77
2022/07/27 05:58:46;;;;;;;4.87;2.30;;;;;16.70;101577.00;;;;10459069;28;20209;-77
2022/07/27 06:03:48;;;;;;;4.77;1.87;;;;;17.20;101565.00;;;;10469248;28;20219;-77
2022/07/27 06:08:50;;;;;;;7.32;2.00;;;;;17.70;101574.00;;;;10521796;28;20188;-77
2022/07/27 06:13:52;;;;;;;3.58;1.70;;;;;18.40;101578.00;;;;10453262;28;20251;-77
2022/07/27 06:18:54;;;;;;;4.28;1.77;;;;;18.90;101574.00;;;;10511007;28;20732;-78
2022/07/27 06:23:56;;;;;;;3.92;1.45;;;;;19.20;101572.00;;;;10493196;28;20291;-77
2022/07/27 06:29:00;;;;;;;5.32;1.52;;;;;19.60;101571.00;;;;10452793;28;20612;-78
2022/07/27 06:34:02;;;;;;;4.03;1.17;;;;;20.00;101577.00;;;;10483154;28;20229;-78
2022/07/27 06:39:12;;;;;;;6.13;1.38;;;;;20.40;101584.00;;;;10500954;28;20690;-78
2022/07/27 06:44:15;;;;;;;2.50;0.93;;;;;20.90;101578.00;;;;10523504;28;20197;-78
2022/07/27 06:49:17;;;;;;;4.20;1.17;;;;;21.50;101580.00;;;;10487923;28;20219;-78
2022/07/27 06:54:19;;;;;;;2.53;0.85;;;;;22.50;101581.00;;;;10479354;28;20185;-78
2022/07/27 06:59:21;;;;;;;3.38;1.17;;;;;22.90;101593.00;;;;10451779;28;20206;-78
2022/07/27 07:04:23;;;;;;;4.35;1.15;;;;;22.60;101588.00;;;;10507371;28;20215;-78
2022/07/27 07:09:27;;;;;;;4.10;0.82;;;;;22.60;101588.00;;;;10525850;28;20192;-79
2022/07/27 07:14:30;;;;;;;1.60;1.00;;;;;22.30;101590.00;;;;10479180;28;20197;-78
2022/07/27 07:19:32;;;;;;;2.97;0.90;;;;;22.40;101590.00;;;;10483809;28;20197;-78
2022/07/27 07:24:35;;;;;;;1.85;0.70;;;;;22.40;101592.00;;;;10476648;28;20692;-78
2022/07/27 07:29:37;;;;;;;4.38;1.10;;;;;22.40;101595.00;;;;10475818;28;20201;-78
2022/07/27 07:34:39;;;;;;;3.80;1.10;;;;;22.30;101600.00;;;;10521777;28;20262;-78
2022/07/27 07:39:41;;;;;;;3.00;0.60;;;;;22.80;101597.00;;;;10492680;28;20263;-76
2022/07/27 07:44:43;;;;;;;3.63;0.70;;;;;22.80;101598.00;;;;10481641;28;20194;-78
2022/07/27 07:49:45;;;;;;;2.30;1.02;;;;;22.20;101601.00;;;;10487245;28;20272;-78
2022/07/27 07:54:47;;;;;;;1.23;0.77;;;;;22.80;101595.00;;;;10465165;28;20588;-79
2022/07/27 07:59:49;;;;;;;5.43;1.02;;;;;24.50;101593.00;;;;10449207;28;20793;-78
2022/07/27 08:04:51;;;;;;;2.72;0.90;;;;;24.10;101607.00;;;;10459871;28;20276;-78
2022/07/27 08:09:53;;;;;;;4.20;0.93;;;;;23.70;101604.00;;;;10482022;28;20193;-78
2022/07/27 08:14:55;;;;;;;3.10;0.80;;;;;24.90;101596.00;;;;10483918;28;20616;-78
2022/07/27 08:19:57;;;;;;;2.05;0.60;;;;;25.30;101602.00;;;;10474031;28;20968;-78
2022/07/27 08:25:01;;;;;;;2.33;0.90;;;;;24.00;101614.00;;;;10501485;28;20201;-75
2022/07/27 08:30:05;;;;;;;5.03;0.88;;;;;22.20;101603.00;;;;10456997;28;20213;-77
2022/07/27 08:35:07;;;;;;;5.72;0.80;;;;;23.60;101597.00;;;;10445820;28;20668;-77
2022/07/27 08:40:10;;;;;;;2.40;0.70;;;;;26.00;101586.00;;;;10538969;28;20201;-75
2022/07/27 08:45:33;;;;;;;1.17;0.80;;;;;26.40;101602.00;;;;10497940;28;20640;-76
2022/07/27 08:50:35;;;;;;;0.80;0.70;;;;;24.40;101602.00;;;;10459145;28;20570;-78
2022/07/27 08:55:42;;;;;;;1.90;0.57;;;;;23.00;101606.00;;;;10485991;28;20261;-77
2022/07/27 09:00:48;;;;;;;3.78;0.95;;;;;22.60;101615.00;;;;10477074;28;20745;-78
2022/07/27 09:05:53;;;;;;;3.72;1.10;;;;;22.70;101619.00;;;;10501808;28;20184;-78
2022/07/27 09:10:58;;;;;;;1.98;0.70;;;;;23.00;101617.00;;;;10476496;28;20181;-77
2022/07/27 09:16:04;;;;;;;3.00;0.98;;;;;23.60;101616.00;;;;10498940;28;20242;-78
2022/07/27 09:21:23;;;;;;;1.33;0.60;;;;;23.90;101616.00;;;;10480272;28;20208;-78
2022/07/27 09:26:27;;;;;;;1.50;0.57;;;;;23.70;101608.00;;;;10483017;28;20305;-77
2022/07/27 09:31:46;;;;;;;1.33;0.73;;;;;24.60;101603.00;;;;10489084;28;20697;-78
2022/07/27 09:36:54;;;;;;;1.52;0.68;;;;;25.70;101584.00;;;;10482258;28;20200;-75
2022/07/27 09:42:01;;;;;;;2.38;0.77;;;;;25.80;101602.00;;;;10455840;28;20307;-76
2022/07/27 09:47:22;;;;;;;2.30;0.75;;;;;24.00;101593.00;;;;10506571;28;20189;-76
2022/07/27 09:52:29;;;;;;;2.83;0.70;;;;;26.30;101580.00;;;;10493921;28;20243;-76
2022/07/27 09:57:55;;;;;;;1.65;0.70;;;;;28.60;101568.00;;;;10479422;28;20191;-76
2022/07/27 10:02:58;;;;;;;1.30;0.60;;;;;29.10;101572.00;;;;10481150;28;20269;-77
2022/07/27 10:08:00;;;;;;;1.65;0.63;;;;;26.50;101579.00;;;;10500488;28;20199;-76
2022/07/27 10:13:04;;;;;;;1.27;0.73;;;;;25.10;101572.00;;;;10525932;28;20204;-77
2022/07/27 10:18:13;;;;;;;3.40;0.75;;;;;24.70;101574.00;;;;10480044;28;20197;-76
2022/07/27 10:23:28;;;;;;;1.77;0.80;;;;;23.60;101569.00;;;;10473676;28;20238;-76
2022/07/27 10:28:30;;;;;;;1.27;0.80;;;;;25.50;101558.00;;;;10492742;28;20537;-76
2022/07/27 10:33:51;;;;;;;2.17;0.95;;;;;27.20;101546.00;;;;10466791;28;20295;-76
2022/07/27 10:38:56;;;;;;;1.25;0.88;;;;;27.90;101549.00;;;;10486584;28;20204;-76
2022/07/27 10:44:15;;;;;;;2.33;1.10;;;;;29.70;101540.00;;;;10483551;28;20187;-76
2022/07/27 10:49:24;;;;;;;3.22;1.20;;;;;28.40;101553.00;;;;10492385;28;20647;-77
2022/07/27 10:54:38;;;;;;;3.33;1.20;;;;;28.10;101544.00;;;;10499611;28;20195;-77
2022/07/27 10:59:42;;;;;;;3.25;1.50;;;;;27.00;101551.00;;;;10499490;28;20573;-78
2022/07/27 11:05:10;;;;;;;3.03;1.50;;;;;24.30;101567.00;;;;10501608;28;20184;-77
2022/07/27 11:10:43;;;;;;;2.95;0.98;;;;;23.40;101573.00;;;;10503129;28;20192;-77
2022/07/27 11:15:58;;;;;;;2.05;0.90;;;;;23.70;101581.00;;;;10459252;28;20205;-77
2022/07/27 11:21:40;;;;;;;4.40;1.00;;;;;24.20;101573.00;;;;10493501;28;20197;-77
2022/07/27 11:26:44;;;;;;;1.73;1.02;;;;;24.80;101566.00;;;;10487941;28;20208;-77
2022/07/27 11:31:52;;;;;;;2.20;0.90;;;;;25.30;101565.00;;;;10485018;28;20186;-76
2022/07/27 11:37:04;;;;;;;4.60;1.20;;;;;25.10;101560.00;;;;10483209;28;20196;-76
2022/07/27 11:42:07;;;;;;;6.28;1.20;;;;;25.80;101534.00;;;;10492265;28;20239;-77
2022/07/27 11:47:18;;;;;;;2.97;1.17;;;;;27.10;101531.00;;;;10498342;28;20818;-76
2022/07/27 11:52:22;;;;;;;4.55;0.70;;;;;26.40;101534.00;;;;10489963;28;20231;-76
2022/07/27 11:57:30;;;;;;;0.93;0.68;;;;;28.20;101532.00;;;;10488172;28;20198;-77
2022/07/27 12:02:32;;;;;;;1.65;0.60;;;;;29.60;101527.00;;;;10471657;28;20222;-77
2022/07/27 12:07:35;;;;;;;2.17;0.73;;;;;30.70;101524.00;;;;10481927;28;20201;-78
2022/07/27 12:12:37;;;;;;;2.97;0.90;;;;;31.40;101530.00;;;;10480972;28;20552;-78
2022/07/27 12:17:42;;;;;;;1.88;1.00;;;;;27.90;101534.00;;;;10486576;28;20201;-77
2022/07/27 12:22:47;;;;;;;2.88;0.63;;;;;27.00;101527.00;;;;10498593;28;20563;-77
2022/07/27 12:28:06;;;;;;;2.17;0.90;;;;;28.60;101520.00;;;;10492756;28;20205;-78
2022/07/27 12:33:31;;;;;;;2.60;0.77;;;;;30.40;101506.00;;;;10501479;28;20177;-78
2022/07/27 12:38:42;;;;;;;3.22;0.98;;;;;31.60;101500.00;;;;10481722;28;20309;-78
2022/07/27 12:43:44;;;;;;;1.83;0.90;;;;;31.50;101507.00;;;;10481138;28;20193;-78
2022/07/27 12:48:46;;;;;;;3.42;1.08;;;;;28.60;101498.00;;;;10483926;28;20252;-78
2022/07/27 12:53:48;;;;;;;2.10;1.23;;;;;29.70;101488.00;;;;10467001;28;20655;-77
2022/07/27 12:59:01;;;;;;;3.58;1.27;;;;;29.30;101490.00;;;;10481167;28;20209;-78
2022/07/27 13:04:04;;;;;;;3.72;1.50;;;;;28.20;101492.00;;;;10497857;28;20291;-77
2022/07/27 13:09:05;;;;;;;3.20;1.13;;;;;27.50;101477.00;;;;10500835;28;20208;-77
2022/07/27 13:14:07;;;;;;;3.85;1.67;;;;;27.20;101485.00;;;;10466882;28;20188;-77
2022/07/27 13:19:12;;;;;;;3.03;1.40;;;;;26.80;101480.00;;;;10485463;28;20217;-76
2022/07/27 13:24:15;;;;;;;4.40;1.42;;;;;26.30;101474.00;;;;10486951;28;20216;-77
2022/07/27 13:29:17;;;;;;;1.90;1.42;;;;;27.90;101463.00;;;;10471296;28;20193;-77
2022/07/27 13:34:20;;;;;;;1.45;1.35;;;;;29.10;101455.00;;;;10469680;28;20200;-77
2022/07/27 13:39:22;;;;;;;6.97;1.40;;;;;30.20;101451.00;;;;10533066;28;20213;-77
2022/07/27 13:44:24;;;;;;;2.17;0.93;;;;;31.30;101453.00;;;;10496228;28;20189;-77
2022/07/27 13:49:46;;;;;;;2.60;1.10;;;;;29.00;101459.00;;;;10501040;28;20185;-77
2022/07/27 13:54:48;;;;;;;2.63;0.80;;;;;27.40;101454.00;;;;10473110;28;20216;-77
2022/07/27 13:59:50;;;;;;;1.77;0.80;;;;;26.60;101462.00;;;;10495765;28;20237;-77
2022/07/27 14:04:52;;;;;;;2.42;0.95;;;;;26.60;101460.00;;;;10471406;28;20223;-77
2022/07/27 14:15:15;;;;;;;3.72;0.57;;;;;31.80;101445.00;;;;10467440;28;20193;-77
2022/07/27 14:20:18;;;;;;;1.38;0.80;;;;;33.00;101443.00;;;;10491889;28;20219;-77
2022/07/27 14:25:20;;;;;;;1.45;0.77;;;;;35.10;101454.00;;;;10455124;28;20205;-76
2022/07/27 14:30:22;;;;;;;2.00;0.70;;;;;34.80;101456.00;;;;10489057;28;20246;-76
2022/07/27 14:35:24;;;;;;;2.25;0.75;;;;;35.00;101449.00;;;;10494423;28;20200;-76
2022/07/27 14:40:27;;;;;;;3.15;0.93;;;;;30.90;101459.00;;;;10473832;28;20683;-76
2022/07/27 14:45:31;;;;;;;2.85;1.17;;;;;28.60;101448.00;;;;10468600;28;20228;-77
2022/07/27 14:50:47;;;;;;;1.85;0.82;;;;;27.50;101447.00;;;;10473432;28;20197;-76
2022/07/27 14:55:51;;;;;;;3.55;1.10;;;;;26.80;101442.00;;;;10474404;28;20206;-76
2022/07/27 15:00:54;;;;;;;3.92;1.30;;;;;26.20;101450.00;;;;10504922;28;20278;-76
2022/07/27 15:05:56;;;;;;;3.83;1.20;;;;;25.50;101436.00;;;;10505089;28;20188;-76
2022/07/27 15:10:58;;;;;;;4.68;1.38;;;;;25.70;101436.00;;;;10497458;28;20590;-76
2022/07/27 15:16:01;;;;;;;4.05;1.20;;;;;28.00;101416.00;;;;10520403;28;20663;-76
2022/07/27 15:21:04;;;;;;;4.72;0.80;;;;;27.00;101417.00;;;;10507648;28;20216;-76
2022/07/27 15:26:13;;;;;;;2.92;0.95;;;;;26.20;101409.00;;;;10477983;28;20184;-77
2022/07/27 15:31:16;;;;;;;3.22;0.82;;;;;25.90;101406.00;;;;10507686;28;20188;-76
2022/07/27 15:36:18;;;;;;;2.28;1.10;;;;;26.60;101408.00;;;;10504217;28;20529;-76
2022/07/27 15:41:36;;;;;;;2.25;0.80;;;;;27.00;101407.00;;;;10486774;28;20219;-76
2022/07/27 15:46:38;;;;;;;3.13;0.80;;;;;26.50;101399.00;;;;10480653;28;20271;-76
2022/07/27 15:51:40;;;;;;;3.95;1.15;;;;;27.10;101398.00;;;;10499039;28;20500;-76
2022/07/27 15:56:43;;;;;;;4.43;1.20;;;;;26.90;101397.00;;;;10493598;28;20201;-77
2022/07/27 16:01:45;;;;;;;5.70;0.93;;;;;26.00;101391.00;;;;10496559;28;20726;-77
2022/07/27 16:06:48;;;;;;;4.55;0.82;;;;;25.30;101384.00;;;;10522107;28;20193;-77
2022/07/27 16:11:50;;;;;;;4.80;1.10;;;;;25.00;101377.00;;;;10461809;28;20189;-76
2022/07/27 16:16:52;;;;;;;3.67;1.27;;;;;24.90;101374.00;;;;10496519;28;20239;-77
2022/07/27 16:21:54;;;;;;;4.13;1.00;;;;;25.00;101364.00;;;;10491292;28;20197;-76
2022/07/27 16:26:57;;;;;;;8.10;1.38;;;;;25.40;101363.00;;;;10500834;28;20204;-76
2022/07/27 16:31:59;;;;;;;1.88;1.00;;;;;25.40;101358.00;;;;10448798;28;20562;-76
2022/07/27 16:37:01;;;;;;;4.45;1.00;;;;;25.40;101361.00;;;;10485343;28;20259;-76
2022/07/27 16:42:03;;;;;;;2.67;0.90;;;;;25.40;101350.00;;;;10477165;28;20286;-76
2022/07/27 16:47:05;;;;;;;2.83;0.90;;;;;25.40;101351.00;;;;10494480;28;20196;-76
2022/07/27 16:52:08;;;;;;;4.43;1.30;;;;;25.10;101344.00;;;;10441384;28;20201;-76
2022/07/27 16:57:10;;;;;;;1.77;0.90;;;;;24.60;101337.00;;;;10447255;28;20607;-76
2022/07/27 17:02:12;;;;;;;4.43;1.33;;;;;24.20;101343.00;;;;10459645;28;20252;-76
2022/07/27 17:07:14;;;;;;;1.63;0.80;;;;;23.90;101333.00;;;;10505326;28;20188;-77
2022/07/27 17:12:16;;;;;;;4.22;1.20;;;;;23.60;101329.00;;;;10480379;28;20217;-76
2022/07/27 17:17:21;;;;;;;1.65;1.00;;;;;23.30;101333.00;;;;10443876;28;20233;-77
2022/07/27 17:22:23;;;;;;;3.60;0.90;;;;;23.10;101331.00;;;;10446440;28;20205;-77
2022/07/27 17:27:25;;;;;;;1.80;0.80;;;;;23.00;101325.00;;;;10462957;28;20221;-76
2022/07/27 17:32:27;;;;;;;0.85;0.68;;;;;23.00;101330.00;;;;10468390;28;20197;-76
2022/07/27 17:37:30;;;;;;;1.77;0.82;;;;;23.20;101324.00;;;;10502700;28;20185;-77
2022/07/27 17:42:53;;;;;;;1.38;0.90;;;;;23.30;101313.00;;;;10445766;28;20784;-76
2022/07/27 17:47:55;;;;;;;6.20;1.13;;;;;23.00;101318.00;;;;10481926;28;20186;-77
2022/07/27 17:52:58;;;;;;;3.47;1.10;;;;;22.70;101318.00;;;;10461723;28;20197;-77
2022/07/27 17:58:00;;;;;;;2.70;1.00;;;;;22.30;101322.00;;;;10481111;28;20216;-76
2022/07/27 18:03:04;;;;;;;5.57;1.15;;;;;22.00;101322.00;;;;10479887;28;20248;-76
2022/07/27 18:08:06;;;;;;;1.75;0.75;;;;;21.90;101318.00;;;;10467989;28;20285;-76
2022/07/27 18:13:08;;;;;;;3.60;1.00;;;;;21.50;101339.00;;;;10487546;28;20195;-77
2022/07/27 18:18:10;;;;;;;2.30;0.80;;;;;21.10;101336.00;;;;10483005;28;20185;-77
2022/07/27 18:23:13;;;;;;;4.18;0.80;;;;;20.70;101340.00;;;;10470390;28;20213;-76
2022/07/27 18:28:17;;;;;;;2.25;1.02;;;;;20.40;101339.00;;;;10518552;28;20223;-76
2022/07/27 18:33:19;;;;;;;2.72;0.98;;;;;20.20;101336.00;;;;10483416;28;20242;-76
2022/07/27 18:38:22;;;;;;;3.72;1.02;;;;;20.00;101344.00;;;;10485001;28;20231;-77
2022/07/27 18:43:24;;;;;;;3.63;1.00;;;;;19.70;101347.00;;;;10519377;28;20231;-77
2022/07/27 18:48:27;;;;;;;2.35;1.17;;;;;19.50;101341.00;;;;10481118;28;20682;-76
2022/07/27 18:53:29;;;;;;;1.15;0.90;;;;;19.20;101340.00;;;;10519360;28;20539;-76
2022/07/27 18:58:31;;;;;;;5.80;1.13;;;;;19.00;101331.00;;;;10479169;28;20189;-76
2022/07/27 19:03:33;;;;;;;4.13;0.90;;;;;18.80;101328.00;;;;10482048;28;20683;-76
2022/07/27 19:08:38;;;;;;;1.95;1.00;;;;;18.60;101333.00;;;;10484335;28;20683;-76
2022/07/27 19:13:40;;;;;;;4.20;1.13;;;;;18.50;101330.00;;;;10484805;28;20216;-77
2022/07/27 19:18:42;;;;;;;2.33;1.20;;;;;18.30;101325.00;;;;10500280;28;20193;-77
2022/07/27 19:23:44;;;;;;;3.40;1.20;;;;;18.10;101335.00;;;;10467056;28;20209;-76
2022/07/27 19:28:46;;;;;;;3.83;1.67;;;;;17.90;101351.00;;;;10474195;28;20201;-76
2022/07/27 19:33:49;;;;;;;8.65;2.90;;;;;17.70;101348.00;;;;10466766;28;20568;-76
2022/07/27 19:38:52;;;;;;;6.40;1.42;;;;;17.60;101349.00;;;;10467138;28;20187;-76
2022/07/27 19:43:54;;;;;;;4.57;1.20;;;;;17.60;101355.00;;;;10464238;28;20208;-77
2022/07/27 19:48:56;;;;;;;5.70;1.25;;;;;17.50;101349.00;;;;10449898;28;20590;-77
2022/07/27 19:53:58;;;;;;;2.97;1.00;;;;;17.50;101367.00;;;;10482136;28;20197;-76
2022/07/27 19:59:00;;;;;;;2.13;1.25;;;;;17.40;101371.00;;;;10442015;28;20197;-76
2022/07/27 20:04:04;;;;;;;6.28;1.63;;;;;17.30;101380.00;;;;10514930;28;20209;-76
2022/07/27 20:09:06;;;;;;;2.77;1.20;;;;;17.30;101373.00;;;;10480470;28;20817;-76
2022/07/27 20:14:08;;;;;;;5.68;1.40;;;;;17.20;101377.00;;;;10475279;28;20679;-77
2022/07/27 20:19:10;;;;;;;7.00;1.27;;;;;17.20;101377.00;;;;10474805;28;20197;-76
2022/07/27 20:24:12;;;;;;;2.90;1.50;;;;;17.20;101366.00;;;;10473662;28;20774;-76
2022/07/27 20:29:15;;;;;;;2.40;1.00;;;;;17.10;101364.00;;;;10505422;28;20185;-77
2022/07/27 20:34:18;;;;;;;2.07;0.97;;;;;17.10;101373.00;;;;10489744;28;20193;-77
2022/07/27 20:39:19;;;;;;;6.95;1.27;;;;;17.10;101374.00;;;;10463675;28;20641;-76
2022/07/27 20:44:22;;;;;;;7.73;1.67;;;;;17.00;101359.00;;;;10465692;28;20214;-77
2022/07/27 20:49:24;;;;;;;5.72;1.45;;;;;17.00;101362.00;;;;10464041;28;20186;-77
2022/07/27 20:54:26;;;;;;;1.97;1.47;;;;;16.90;101375.00;;;;10469544;28;20196;-77
2022/07/27 20:59:31;;;;;;;5.13;1.73;;;;;16.90;101374.00;;;;10454943;28;20197;-77
2022/07/27 21:04:34;;;;;;;2.87;1.20;;;;;16.80;101368.00;;;;10480200;28;20209;-76
2022/07/27 21:09:36;;;;;;;4.50;1.50;;;;;16.80;101368.00;;;;10447101;28;20217;-76
2022/07/27 21:14:41;;;;;;;2.10;1.30;;;;;16.80;101371.00;;;;10472819;28;20201;-77
2022/07/27 21:19:43;;;;;;;2.50;1.00;;;;;16.70;101371.00;;;;10476260;28;20188;-76
2022/07/27 21:24:45;;;;;;;7.17;1.50;;;;;16.70;101372.00;;;;10505458;28;20185;-77
2022/07/27 21:29:49;;;;;;;4.63;1.33;;;;;16.70;101372.00;;;;10485714;28;20269;-77
2022/07/27 21:34:52;;;;;;;4.70;1.23;;;;;16.60;101373.00;;;;10455679;28;20617;-77
2022/07/27 21:39:54;;;;;;;3.53;1.90;;;;;16.60;101373.00;;;;10463978;28;20200;-77
2022/07/27 21:44:56;;;;;;;2.67;1.30;;;;;16.50;101381.00;;;;10463940;28;20197;-77
2022/07/27 21:49:58;;;;;;;2.27;1.10;;;;;16.50;101383.00;;;;10475517;28;20223;-77
2022/07/27 21:55:00;;;;;;;1.93;1.10;;;;;16.40;101374.00;;;;10466167;28;20200;-77
2022/07/27 22:00:04;;;;;;;2.73;1.27;;;;;16.40;101377.00;;;;10462808;28;20225;-77
2022/07/27 22:05:07;;;;;;;3.33;1.37;;;;;16.30;101381.00;;;;10474287;28;20193;-76
2022/07/27 22:10:09;;;;;;;3.13;1.13;;;;;16.20;101366.00;;;;10494742;28;20189;-77
2022/07/27 22:15:11;;;;;;;3.20;1.20;;;;;16.10;101374.00;;;;10505293;28;20181;-76
2022/07/27 22:20:14;;;;;;;3.30;1.20;;;;;16.00;101372.00;;;;10469905;28;20208;-76
2022/07/27 22:25:17;;;;;;;3.43;1.57;;;;;16.00;101372.00;;;;10462684;28;20213;-77
2022/07/27 22:30:19;;;;;;;2.87;1.13;;;;;15.90;101365.00;;;;10461200;28;20192;-77
2022/07/27 22:35:21;;;;;;;4.60;1.40;;;;;15.90;101374.00;;;;10480118;28;20766;-76
2022/07/27 22:40:23;;;;;;;4.00;1.30;;;;;15.90;101378.00;;;;10492573;28;20242;-77
2022/07/27 22:45:25;;;;;;;3.53;1.40;;;;;15.90;101372.00;;;;10499845;28;20195;-77
2022/07/27 22:50:27;;;;;;;5.20;1.20;;;;;15.90;101377.00;;;;10479543;28;20238;-77
2022/07/27 22:55:29;;;;;;;3.93;1.20;;;;;15.90;101374.00;;;;10529176;28;20550;-77
2022/07/27 23:00:32;;;;;;;5.07;1.20;;;;;15.90;101389.00;;;;10479829;28;20239;-77
2022/07/27 23:05:35;;;;;;;1.83;1.20;;;;;15.80;101391.00;;;;10493965;28;20604;-76
2022/07/27 23:10:46;;;;;;;3.93;1.30;;;;;15.80;101378.00;;;;10493434;28;20731;-77
2022/07/27 23:15:49;;;;;;;4.17;1.33;;;;;15.70;101377.00;;;;10477532;28;20189;-76
2022/07/27 23:20:54;;;;;;;3.47;1.20;;;;;15.70;101368.00;;;;10477162;28;20205;-77
2022/07/27 23:25:56;;;;;;;2.93;1.40;;;;;15.60;101366.00;;;;10485099;28;20197;-76
2022/07/27 23:30:58;;;;;;;3.97;1.80;;;;;15.60;101375.00;;;;10467957;28;20266;-77
2022/07/27 23:36:05;;;;;;;6.03;1.50;;;;;15.60;101366.00;;;;10495110;28;20219;-77
2022/07/27 23:41:07;;;;;;;5.20;1.70;;;;;15.60;101360.00;;;;10479250;28;20258;-77
2022/07/27 23:46:09;;;;;;;4.83;1.60;;;;;15.50;101360.00;;;;10509565;28;20663;-76
2022/07/27 23:51:16;;;;;;;5.07;1.57;;;;;15.50;101365.00;;;;10488205;28;20244;-76
2022/07/27 23:56:18;;;;;;;8.67;2.43;;;;;15.40;101365.00;;;;10467411;28;20293;-76
